createdAt,value
2019-05-05T00:01:46.054Z,1.13
2019-05-05T00:05:50.475Z,1.20
2019-05-05T00:09:55.077Z,1.10
2019-05-05T00:14:05.966Z,1.30
2019-05-05T00:18:10.203Z,1.00
2019-05-05T00:22:15.149Z,1.30
2019-05-05T00:26:19.297Z,1.50
2019-05-05T00:30:24.926Z,1.20
2019-05-05T00:34:28.978Z,1.17
2019-05-05T00:38:35.002Z,1.10
2019-05-05T00:42:38.612Z,1.20
2019-05-05T00:47:01.853Z,1.20
2019-05-05T00:51:05.848Z,1.10
2019-05-05T00:55:09.987Z,1.13
2019-05-05T00:59:15.775Z,1.10
2019-05-05T01:03:24.207Z,1.20
2019-05-05T01:07:28.081Z,1.43
2019-05-05T01:11:32.076Z,1.00
2019-05-05T01:15:36.288Z,1.10
2019-05-05T01:19:40.380Z,1.23
2019-05-05T01:23:45.543Z,1.20
2019-05-05T01:27:49.984Z,1.00
2019-05-05T01:31:55.831Z,1.33
2019-05-05T01:35:59.984Z,1.13
2019-05-05T01:40:14.229Z,1.30
2019-05-05T01:44:18.453Z,1.10
2019-05-05T01:48:41.794Z,1.20
2019-05-05T01:52:45.894Z,1.43
2019-05-05T01:56:52.280Z,1.43
2019-05-05T02:00:55.869Z,1.17
2019-05-05T02:05:00.053Z,1.20
2019-05-05T02:09:05.805Z,1.33
2019-05-05T02:13:11.304Z,1.30
2019-05-05T02:17:15.415Z,1.40
2019-05-05T02:21:19.606Z,1.30
2019-05-05T02:25:25.027Z,1.00
2019-05-05T02:29:35.401Z,1.00
2019-05-05T02:33:39.526Z,1.20
2019-05-05T02:37:45.754Z,1.20
2019-05-05T02:41:49.868Z,1.50
2019-05-05T02:46:05.718Z,1.27
2019-05-05T02:50:10.201Z,1.20
2019-05-05T02:54:14.287Z,1.40
2019-05-05T02:58:19.804Z,1.40
2019-05-05T03:02:26.046Z,1.33
2019-05-05T03:06:30.013Z,1.47
2019-05-05T03:10:34.398Z,1.40
2019-05-05T03:14:39.730Z,1.30
2019-05-05T03:18:44.174Z,1.60
2019-05-05T03:22:48.268Z,1.60
2019-05-05T03:26:53.727Z,1.40
2019-05-05T03:30:57.887Z,1.57
2019-05-05T03:35:04.275Z,1.80
2019-05-05T03:39:10.548Z,2.13
2019-05-05T03:43:20.454Z,1.93
2019-05-05T03:47:24.849Z,1.70
2019-05-05T03:51:29.076Z,1.87
2019-05-05T03:55:34.535Z,1.63
2019-05-05T04:04:30.181Z,1.80
2019-05-05T04:08:34.325Z,1.90
2019-05-05T04:12:39.060Z,1.80
2019-05-05T04:16:48.716Z,1.77
2019-05-05T04:20:53.462Z,1.37
2019-05-05T04:24:57.499Z,1.27
2019-05-05T04:29:05.346Z,1.60
2019-05-05T04:33:08.974Z,1.70
2019-05-05T04:37:14.891Z,1.80
2019-05-05T04:41:18.776Z,1.40
2019-05-05T04:45:24.115Z,1.40
2019-05-05T04:49:35.411Z,1.30
2019-05-05T04:53:58.726Z,1.33
2019-05-05T04:58:04.628Z,1.43
2019-05-05T05:02:20.358Z,1.40
2019-05-05T05:06:29.643Z,1.27
2019-05-05T05:10:34.583Z,1.37
2019-05-05T05:14:39.809Z,1.30
2019-05-05T05:18:44.811Z,1.63
2019-05-05T05:22:48.953Z,1.30
2019-05-05T05:26:53.083Z,1.10
2019-05-05T05:30:57.055Z,1.40
2019-05-05T05:35:01.117Z,1.53
2019-05-05T05:39:11.377Z,1.40
2019-05-05T05:43:19.694Z,1.20
2019-05-05T05:47:29.550Z,1.27
2019-05-05T05:51:34.184Z,1.10
2019-05-05T05:55:38.261Z,1.10
2019-05-05T05:59:44.354Z,1.50
2019-05-05T06:03:48.105Z,1.50
2019-05-05T06:07:54.242Z,1.63
2019-05-05T06:11:57.842Z,1.30
2019-05-05T06:16:04.016Z,1.73
2019-05-05T06:20:07.648Z,1.70
2019-05-05T06:24:13.632Z,1.80
2019-05-05T06:28:17.460Z,1.30
2019-05-05T06:32:23.695Z,2.50
2019-05-05T06:36:34.941Z,2.57
2019-05-05T06:40:48.720Z,2.00
2019-05-05T06:44:58.245Z,1.77
2019-05-05T06:49:04.213Z,1.80
2019-05-05T06:53:07.940Z,1.93
2019-05-05T06:57:13.743Z,1.93
2019-05-05T07:01:17.869Z,1.93
2019-05-05T07:05:23.537Z,2.00
2019-05-05T07:09:27.631Z,2.10
2019-05-05T07:13:33.761Z,1.87
2019-05-05T07:17:37.441Z,2.40
2019-05-05T07:21:43.513Z,2.20
2019-05-05T07:25:48.190Z,1.73
2019-05-05T07:29:54.143Z,2.00
2019-05-05T07:33:58.090Z,1.97
2019-05-05T07:38:04.542Z,2.50
2019-05-05T07:42:08.801Z,2.80
2019-05-05T07:46:13.571Z,3.73
2019-05-05T07:50:28.974Z,2.20
2019-05-05T07:54:23.718Z,2.60
2019-05-05T07:58:27.843Z,3.23
2019-05-05T08:02:33.826Z,2.23
2019-05-05T08:06:37.646Z,2.57
2019-05-05T08:10:43.730Z,2.07
2019-05-05T08:14:48.750Z,2.43
2019-05-05T08:19:06.469Z,2.73
2019-05-05T08:23:29.040Z,2.47
2019-05-05T08:27:31.063Z,2.97
2019-05-05T08:31:47.752Z,3.40
2019-05-05T08:35:54.150Z,3.53
2019-05-05T08:39:58.306Z,3.00
2019-05-05T08:44:03.682Z,2.53
2019-05-05T08:48:07.923Z,2.40
2019-05-05T08:52:14.309Z,2.47
2019-05-05T08:56:17.781Z,2.27
2019-05-05T09:00:21.858Z,2.53
2019-05-05T09:04:25.995Z,2.67
2019-05-05T09:08:30.030Z,2.00
2019-05-05T09:12:34.101Z,2.30
2019-05-05T09:16:38.075Z,1.90
2019-05-05T09:20:44.362Z,1.10
2019-05-05T09:25:07.699Z,1.50
2019-05-05T09:29:24.312Z,1.50
2019-05-05T09:33:28.433Z,1.80
2019-05-05T09:37:33.955Z,1.67
2019-05-05T09:41:39.277Z,2.97
2019-05-05T09:45:44.153Z,2.17
2019-05-05T09:49:48.401Z,2.77
2019-05-05T09:53:54.222Z,2.50
2019-05-05T09:57:59.365Z,2.57
2019-05-05T10:02:05.276Z,3.00
2019-05-05T10:06:09.317Z,2.73
2019-05-05T10:10:13.858Z,3.13
2019-05-05T10:14:18.122Z,3.27
2019-05-05T10:18:22.226Z,2.30
2019-05-05T10:22:26.279Z,2.50
2019-05-05T10:26:30.358Z,2.77
2019-05-05T10:30:34.527Z,2.70
2019-05-05T10:34:38.601Z,2.60
2019-05-05T10:38:45.478Z,4.73
2019-05-05T10:42:49.619Z,3.00
2019-05-05T10:46:54.810Z,4.57
2019-05-05T10:50:58.886Z,4.37
2019-05-05T10:55:03.961Z,3.30
2019-05-05T10:59:08.026Z,3.80
2019-05-05T11:03:14.883Z,3.23
2019-05-05T11:07:20.162Z,3.07
2019-05-05T11:11:24.024Z,2.70
2019-05-05T11:15:28.161Z,2.17
2019-05-05T11:19:33.614Z,2.57
2019-05-05T11:23:38.809Z,1.80
2019-05-05T11:27:44.054Z,1.87
2019-05-05T11:31:48.268Z,2.30
2019-05-05T11:36:00.338Z,2.17
2019-05-05T11:40:04.487Z,2.47
2019-05-05T11:44:08.555Z,2.60
2019-05-05T11:48:14.602Z,2.57
2019-05-05T11:52:18.340Z,1.80
2019-05-05T11:56:22.334Z,2.53
2019-05-05T12:00:26.409Z,2.00
2019-05-05T12:04:30.557Z,2.47
2019-05-05T12:08:34.759Z,2.40
2019-05-05T12:12:38.924Z,2.10
2019-05-05T12:16:43.894Z,1.80
2019-05-05T12:20:47.952Z,2.07
2019-05-05T12:24:53.487Z,2.07
2019-05-05T12:29:00.825Z,2.27
2019-05-05T12:33:04.967Z,2.00
2019-05-05T12:37:09.038Z,2.40
2019-05-05T12:41:14.801Z,2.47
2019-05-05T12:45:24.049Z,1.43
2019-05-05T12:49:28.250Z,1.40
2019-05-05T12:53:32.352Z,1.63
2019-05-05T12:57:36.398Z,1.40
2019-05-05T13:01:41.029Z,2.43
2019-05-05T13:05:46.135Z,1.80
2019-05-05T13:09:50.233Z,5.10
2019-05-05T13:13:55.781Z,2.80
2019-05-05T13:17:59.878Z,2.30
2019-05-05T13:22:18.614Z,3.43
2019-05-05T13:26:29.932Z,2.87
2019-05-05T13:30:34.456Z,2.70
2019-05-05T13:34:38.670Z,2.03
2019-05-05T13:38:43.782Z,2.30
2019-05-05T13:42:47.941Z,1.77
2019-05-05T13:46:53.608Z,2.40
2019-05-05T13:51:01.471Z,1.60
2019-05-05T13:55:05.597Z,1.73
2019-05-05T13:59:09.677Z,1.93
2019-05-05T14:03:13.771Z,2.00
2019-05-05T14:07:17.954Z,2.30
2019-05-05T14:11:24.673Z,8.47
2019-05-05T14:15:28.898Z,3.20
2019-05-05T14:19:34.041Z,2.63
2019-05-05T14:23:57.343Z,1.97
2019-05-05T14:28:03.503Z,2.03
2019-05-05T14:32:08.088Z,2.20
2019-05-05T14:36:20.735Z,1.87
2019-05-05T14:40:24.765Z,1.97
2019-05-05T14:44:28.904Z,1.93
2019-05-05T14:48:37.011Z,2.10
2019-05-05T14:52:39.672Z,2.40
2019-05-05T14:56:44.162Z,2.53
2019-05-05T15:00:49.237Z,2.60
2019-05-05T15:04:54.265Z,3.27
2019-05-05T15:09:17.541Z,2.97
2019-05-05T15:13:21.871Z,1.80
2019-05-05T15:17:25.869Z,1.90
2019-05-05T15:21:30.817Z,2.03
2019-05-05T15:25:34.890Z,2.63
2019-05-05T15:29:38.898Z,1.90
2019-05-05T15:33:44.140Z,2.80
2019-05-05T15:37:48.246Z,4.30
2019-05-05T15:41:54.223Z,2.83
2019-05-05T15:45:58.034Z,2.30
2019-05-05T15:50:04.283Z,2.30
2019-05-05T15:54:08.240Z,2.30
2019-05-05T15:58:14.008Z,2.00
2019-05-05T16:02:18.527Z,2.07
2019-05-05T16:06:23.793Z,2.13
2019-05-05T16:10:27.735Z,2.00
2019-05-05T16:14:33.432Z,1.83
2019-05-05T16:18:46.538Z,1.83
2019-05-05T16:23:01.271Z,1.90
2019-05-05T16:27:18.385Z,1.70
2019-05-05T16:31:11.157Z,2.40
2019-05-05T16:35:15.387Z,2.77
2019-05-05T16:39:19.366Z,2.03
2019-05-05T16:43:24.704Z,2.10
2019-05-05T16:47:29.010Z,2.03
2019-05-05T16:51:36.714Z,2.00
2019-05-05T16:55:45.583Z,1.90
2019-05-05T16:59:49.513Z,1.50
2019-05-05T17:03:54.278Z,2.00
2019-05-05T17:07:59.590Z,2.47
2019-05-05T17:12:08.705Z,2.27
2019-05-05T17:16:35.041Z,2.03
2019-05-05T17:20:46.180Z,2.03
2019-05-05T17:24:50.105Z,3.73
2019-05-05T17:28:54.240Z,3.67
2019-05-05T17:32:58.257Z,2.40
2019-05-05T17:37:04.273Z,2.17
2019-05-05T17:41:23.752Z,1.93
2019-05-05T17:45:35.803Z,1.97
2019-05-05T17:49:59.417Z,1.93
2019-05-05T17:54:12.501Z,2.20
2019-05-05T17:58:16.488Z,2.50
2019-05-05T18:02:20.540Z,2.37
2019-05-05T18:06:37.382Z,2.50
2019-05-05T18:10:44.450Z,1.87
2019-05-05T18:14:53.653Z,2.50
2019-05-05T18:18:57.796Z,2.53
2019-05-05T18:23:01.771Z,1.80
2019-05-05T18:27:06.873Z,2.30
2019-05-05T18:31:10.841Z,2.10
2019-05-05T18:35:14.926Z,1.87
2019-05-05T18:39:19.022Z,1.97
2019-05-05T18:43:43.422Z,1.90
2019-05-05T18:47:47.592Z,1.97
2019-05-05T18:51:53.355Z,2.30
2019-05-05T18:55:57.684Z,1.90
2019-05-05T19:00:03.793Z,1.70
2019-05-05T19:04:28.639Z,2.00
2019-05-05T19:08:36.519Z,2.73
2019-05-05T19:12:40.544Z,2.40
2019-05-05T19:16:44.581Z,2.03
2019-05-05T19:20:57.129Z,2.37
2019-05-05T19:25:14.756Z,2.53
2019-05-05T19:29:20.284Z,2.83
2019-05-05T19:33:25.439Z,3.00
2019-05-05T19:37:30.669Z,3.37
2019-05-05T19:41:34.876Z,3.87
2019-05-05T19:45:40.347Z,4.23
2019-05-05T19:49:49.384Z,3.47
2019-05-05T19:53:54.136Z,3.17
2019-05-05T19:57:58.103Z,2.97
2019-05-05T20:02:03.640Z,3.03
2019-05-05T20:06:08.113Z,3.20
2019-05-05T20:10:14.537Z,3.03
2019-05-05T20:14:18.263Z,3.13
2019-05-05T20:18:22.264Z,3.33
2019-05-05T20:22:26.291Z,2.73
2019-05-05T20:26:30.410Z,2.87
2019-05-05T20:30:34.473Z,3.00
2019-05-05T20:34:47.019Z,3.17
2019-05-05T20:38:54.800Z,3.53
2019-05-05T20:42:58.850Z,2.50
2019-05-05T20:47:04.529Z,3.03
2019-05-05T20:51:08.725Z,2.10
2019-05-05T20:55:14.110Z,1.93
2019-05-05T20:59:27.130Z,2.00
2019-05-05T21:03:23.911Z,2.27
2019-05-05T21:07:27.977Z,1.93
2019-05-05T21:11:32.001Z,1.93
2019-05-05T21:15:35.963Z,2.40
2019-05-05T21:19:40.145Z,2.37
2019-05-05T21:23:48.613Z,2.43
2019-05-05T21:27:52.629Z,3.13
2019-05-05T21:31:56.730Z,3.53
2019-05-05T21:36:00.791Z,3.03
2019-05-05T21:40:05.012Z,3.50
2019-05-05T21:44:09.129Z,2.83
2019-05-05T21:48:13.616Z,3.50
2019-05-05T21:52:31.705Z,3.00
2019-05-05T21:56:43.484Z,4.17
2019-05-05T22:01:07.723Z,3.37
2019-05-05T22:05:11.927Z,4.10
2019-05-05T22:09:15.916Z,3.80
2019-05-05T22:13:20.896Z,3.57
2019-05-05T22:17:25.053Z,3.13
2019-05-05T22:21:36.195Z,2.50
2019-05-05T22:25:41.303Z,2.03
2019-05-05T22:29:45.284Z,2.40
2019-05-05T22:33:49.412Z,2.80
2019-05-05T22:37:53.433Z,2.40
2019-05-05T22:41:57.462Z,2.10
2019-05-05T22:46:03.476Z,2.40
2019-05-05T22:50:07.345Z,2.90
2019-05-05T22:54:11.471Z,3.07
2019-05-05T22:58:15.461Z,2.40
2019-05-05T23:02:21.221Z,2.43
2019-05-05T23:06:26.327Z,2.50
2019-05-05T23:10:30.381Z,2.20
2019-05-05T23:14:34.463Z,2.20
2019-05-05T23:18:38.507Z,1.87
2019-05-05T23:22:48.464Z,2.60
2019-05-05T23:26:54.616Z,2.87
2019-05-05T23:30:58.740Z,2.70
2019-05-05T23:35:02.869Z,3.07
2019-05-05T23:39:07.215Z,2.60
2019-05-05T23:43:11.274Z,2.67
2019-05-05T23:47:15.340Z,3.43
2019-05-05T23:51:19.440Z,2.83
2019-05-05T23:55:24.085Z,2.67
2019-05-05T23:59:28.238Z,2.80
